sensor_id;sensor_type;location;lat;lon;timestamp;temperature;humidity
34291;DHT22;20553;47.544;7.586;2022-08-01T10:27:26;43.00;31.30
34291;DHT22;20553;47.544;7.586;2022-08-01T10:33:13;41.50;32.50
34291;DHT22;20553;47.544;7.586;2022-08-01T10:38:46;42.00;31.90
34291;DHT22;20553;47.544;7.586;2022-08-01T10:45:09;42.60;31.10
34291;DHT22;20553;47.544;7.586;2022-08-01T10:56:26;43.50;30.70
34291;DHT22;20553;47.544;7.586;2022-08-01T11:02:08;43.40;30.60
34291;DHT22;20553;47.544;7.586;2022-08-01T11:08:41;43.60;30.60
34291;DHT22;20553;47.544;7.586;2022-08-01T11:15:23;43.90;30.10
34291;DHT22;20553;47.544;7.586;2022-08-01T11:20:55;45.80;29.40
34291;DHT22;20553;47.544;7.586;2022-08-01T11:26:22;46.00;29.00
34291;DHT22;20553;47.544;7.586;2022-08-01T11:31:33;45.00;29.30
34291;DHT22;20553;47.544;7.586;2022-08-01T11:36:44;45.90;29.00
34291;DHT22;20553;47.544;7.586;2022-08-01T11:42:18;46.20;28.70
34291;DHT22;20553;47.544;7.586;2022-08-01T11:48:06;46.00;28.90
34291;DHT22;20553;47.544;7.586;2022-08-01T11:53:50;45.30;28.90
34291;DHT22;20553;47.544;7.586;2022-08-01T11:59:24;46.00;28.60
34291;DHT22;20553;47.544;7.586;2022-08-01T12:05:43;47.10;28.50
34291;DHT22;20553;47.544;7.586;2022-08-01T12:12:06;47.40;27.90
34291;DHT22;20553;47.544;7.586;2022-08-01T12:17:41;47.80;27.80
34291;DHT22;20553;47.544;7.586;2022-08-01T12:23:00;47.80;27.20
34291;DHT22;20553;47.544;7.586;2022-08-01T12:28:11;46.50;27.30
34291;DHT22;20553;47.544;7.586;2022-08-01T12:33:18;46.90;27.10
34291;DHT22;20553;47.544;7.586;2022-08-01T12:38:23;46.20;27.30
34291;DHT22;20553;47.544;7.586;2022-08-01T12:43:31;46.30;27.10
34291;DHT22;20553;47.544;7.586;2022-08-01T12:48:37;46.00;27.10
34291;DHT22;20553;47.544;7.586;2022-08-01T12:53:42;46.00;27.00
34291;DHT22;20553;47.544;7.586;2022-08-01T12:58:48;45.60;27.40
34291;DHT22;20553;47.544;7.586;2022-08-01T13:04:00;46.20;27.50
34291;DHT22;20553;47.544;7.586;2022-08-01T13:09:07;46.10;27.00
34291;DHT22;20553;47.544;7.586;2022-08-01T13:14:28;46.60;27.10
34291;DHT22;20553;47.544;7.586;2022-08-01T13:19:42;46.40;27.00
34291;DHT22;20553;47.544;7.586;2022-08-01T13:24:48;44.90;27.30
34291;DHT22;20553;47.544;7.586;2022-08-01T13:29:54;45.60;27.40
34291;DHT22;20553;47.544;7.586;2022-08-01T13:35:14;46.60;27.20
34291;DHT22;20553;47.544;7.586;2022-08-01T13:40:26;47.30;26.60
34291;DHT22;20553;47.544;7.586;2022-08-01T13:45:34;45.90;27.30
34291;DHT22;20553;47.544;7.586;2022-08-01T13:50:38;46.60;26.90
34291;DHT22;20553;47.544;7.586;2022-08-01T13:55:43;46.10;27.20
34291;DHT22;20553;47.544;7.586;2022-08-01T14:00:50;47.00;27.00
34291;DHT22;20553;47.544;7.586;2022-08-01T14:05:55;47.20;26.80
34291;DHT22;20553;47.544;7.586;2022-08-01T14:11:00;46.70;26.70
34291;DHT22;20553;47.544;7.586;2022-08-01T14:16:11;43.50;27.70
34291;DHT22;20553;47.544;7.586;2022-08-01T14:21:20;43.00;28.30
34291;DHT22;20553;47.544;7.586;2022-08-01T14:26:24;42.70;28.40
34291;DHT22;20553;47.544;7.586;2022-08-01T14:31:30;41.40;29.50
34291;DHT22;20553;47.544;7.586;2022-08-01T14:36:36;42.60;28.90
34291;DHT22;20553;47.544;7.586;2022-08-01T14:41:41;42.10;29.30
34291;DHT22;20553;47.544;7.586;2022-08-01T14:46:49;41.80;29.30
34291;DHT22;20553;47.544;7.586;2022-08-01T14:51:59;40.60;30.00
34291;DHT22;20553;47.544;7.586;2022-08-01T14:57:04;40.50;30.50
34291;DHT22;20553;47.544;7.586;2022-08-01T15:02:10;40.10;30.00
34291;DHT22;20553;47.544;7.586;2022-08-01T15:07:16;38.60;31.50
34291;DHT22;20553;47.544;7.586;2022-08-01T15:12:22;37.20;32.60
34291;DHT22;20553;47.544;7.586;2022-08-01T15:17:35;36.60;33.10
34291;DHT22;20553;47.544;7.586;2022-08-01T15:22:41;37.20;32.70
34291;DHT22;20553;47.544;7.586;2022-08-01T15:27:45;37.20;32.90
34291;DHT22;20553;47.544;7.586;2022-08-01T15:32:56;37.40;32.60
34291;DHT22;20553;47.544;7.586;2022-08-01T15:38:01;36.90;32.80
34291;DHT22;20553;47.544;7.586;2022-08-01T15:43:07;36.30;33.30
34291;DHT22;20553;47.544;7.586;2022-08-01T15:48:19;36.70;33.30
34291;DHT22;20553;47.544;7.586;2022-08-01T15:53:26;38.20;31.90
34291;DHT22;20553;47.544;7.586;2022-08-01T15:58:33;37.40;32.40
34291;DHT22;20553;47.544;7.586;2022-08-01T16:03:38;35.30;33.90
34291;DHT22;20553;47.544;7.586;2022-08-01T16:08:43;34.10;35.20
34291;DHT22;20553;47.544;7.586;2022-08-01T16:13:49;33.30;36.20
34291;DHT22;20553;47.544;7.586;2022-08-01T16:18:57;33.00;36.60
34291;DHT22;20553;47.544;7.586;2022-08-01T16:24:02;32.50;36.90
34291;DHT22;20553;47.544;7.586;2022-08-01T16:29:07;32.10;38.00
34291;DHT22;20553;47.544;7.586;2022-08-01T16:34:13;31.80;37.80
34291;DHT22;20553;47.544;7.586;2022-08-01T16:39:18;31.50;38.40
34291;DHT22;20553;47.544;7.586;2022-08-01T16:44:25;31.30;38.80
34291;DHT22;20553;47.544;7.586;2022-08-01T16:49:37;31.10;39.30
34291;DHT22;20553;47.544;7.586;2022-08-01T16:54:41;30.80;39.50
34291;DHT22;20553;47.544;7.586;2022-08-01T16:59:46;30.60;39.50
34291;DHT22;20553;47.544;7.586;2022-08-01T17:04:51;30.60;40.00
34291;DHT22;20553;47.544;7.586;2022-08-01T17:09:57;30.30;40.40
34291;DHT22;20553;47.544;7.586;2022-08-01T17:15:04;30.00;40.90
34291;DHT22;20553;47.544;7.586;2022-08-01T17:20:11;29.60;41.50
34291;DHT22;20553;47.544;7.586;2022-08-01T17:25:15;29.50;41.90
34291;DHT22;20553;47.544;7.586;2022-08-01T17:30:20;29.50;42.30
34291;DHT22;20553;47.544;7.586;2022-08-01T17:35:26;29.30;42.90
34291;DHT22;20553;47.544;7.586;2022-08-01T17:40:30;29.20;43.50
34291;DHT22;20553;47.544;7.586;2022-08-01T17:45:43;29.00;43.90
34291;DHT22;20553;47.544;7.586;2022-08-01T17:50:54;28.70;44.50
34291;DHT22;20553;47.544;7.586;2022-08-01T17:55:58;28.60;44.90
34291;DHT22;20553;47.544;7.586;2022-08-01T18:01:04;28.50;45.50
34291;DHT22;20553;47.544;7.586;2022-08-01T18:06:12;28.30;46.10
34291;DHT22;20553;47.544;7.586;2022-08-01T18:11:19;28.30;46.30
34291;DHT22;20553;47.544;7.586;2022-08-01T18:16:23;28.20;50.10
34291;DHT22;20553;47.544;7.586;2022-08-01T18:21:29;28.00;52.80
34291;DHT22;20553;47.544;7.586;2022-08-01T18:26:35;27.70;54.20
34291;DHT22;20553;47.544;7.586;2022-08-01T18:31:39;27.40;54.90
34291;DHT22;20553;47.544;7.586;2022-08-01T18:36:46;27.00;56.10
34291;DHT22;20553;47.544;7.586;2022-08-01T18:41:51;26.70;57.80
34291;DHT22;20553;47.544;7.586;2022-08-01T18:46:55;26.30;59.00
34291;DHT22;20553;47.544;7.586;2022-08-01T18:52:01;25.90;59.70
34291;DHT22;20553;47.544;7.586;2022-08-01T18:57:06;25.60;60.70
34291;DHT22;20553;47.544;7.586;2022-08-01T19:02:11;25.40;61.30
34291;DHT22;20553;47.544;7.586;2022-08-01T19:07:19;25.10;61.90
34291;DHT22;20553;47.544;7.586;2022-08-01T19:12:43;25.10;62.30
34291;DHT22;20553;47.544;7.586;2022-08-01T19:17:48;24.80;63.20
34291;DHT22;20553;47.544;7.586;2022-08-01T19:22:54;24.70;63.30
34291;DHT22;20553;47.544;7.586;2022-08-01T19:27:59;24.60;63.50
34291;DHT22;20553;47.544;7.586;2022-08-01T19:33:04;24.40;64.60
34291;DHT22;20553;47.544;7.586;2022-08-01T19:38:11;24.20;65.80
34291;DHT22;20553;47.544;7.586;2022-08-01T19:43:17;24.10;66.50
34291;DHT22;20553;47.544;7.586;2022-08-01T19:48:24;24.00;67.40
34291;DHT22;20553;47.544;7.586;2022-08-01T19:53:34;23.90;68.10
34291;DHT22;20553;47.544;7.586;2022-08-01T19:58:41;23.70;68.70
34291;DHT22;20553;47.544;7.586;2022-08-01T20:03:48;23.60;69.70
34291;DHT22;20553;47.544;7.586;2022-08-01T20:08:58;23.40;70.50
34291;DHT22;20553;47.544;7.586;2022-08-01T20:14:03;23.30;71.70
34291;DHT22;20553;47.544;7.586;2022-08-01T20:19:08;23.30;72.50
34291;DHT22;20553;47.544;7.586;2022-08-01T20:24:16;23.20;72.90
34291;DHT22;20553;47.544;7.586;2022-08-01T20:29:23;23.20;73.10
34291;DHT22;20553;47.544;7.586;2022-08-01T20:37:02;23.00;73.30
34291;DHT22;20553;47.544;7.586;2022-08-01T20:42:15;22.90;74.30
34291;DHT22;20553;47.544;7.586;2022-08-01T20:47:20;22.80;74.20
34291;DHT22;20553;47.544;7.586;2022-08-01T20:52:26;22.80;73.90
34291;DHT22;20553;47.544;7.586;2022-08-01T20:57:31;22.80;73.50
34291;DHT22;20553;47.544;7.586;2022-08-01T21:02:48;22.70;73.80
34291;DHT22;20553;47.544;7.586;2022-08-01T21:08:03;22.70;73.70
34291;DHT22;20553;47.544;7.586;2022-08-01T21:13:13;22.70;73.60
34291;DHT22;20553;47.544;7.586;2022-08-01T21:18:32;22.60;73.80
